Time;durP1;ratioP1;P1;durP2;ratioP2;P2;SDS_P1;SDS_P2;PMS_P1;PMS_P2;Temp;Humidity;BMP_temperature;BMP_pressure;BME280_temperature;BME280_humidity;BME280_pressure;Samples;Min_cycle;Max_cycle;Signal;HPM_P1;HPM_P2
2024/01/25 00:02:09;;;;;;;24.48;3.80;;;;;;;12.08;100.00;102662.84;5041750;28;20068;-62
2024/01/25 00:04:37;;;;;;;23.27;3.80;;;;;;;11.70;100.00;102657.03;5045589;28;20045;-62
2024/01/25 00:07:04;;;;;;;24.65;3.67;;;;;;;11.71;100.00;102658.69;5028777;28;20059;-61
2024/01/25 00:09:32;;;;;;;19.77;3.92;;;;;;;11.68;100.00;102662.00;5043996;28;20055;-61
2024/01/25 00:11:59;;;;;;;21.17;4.28;;;;;;;11.77;100.00;102654.84;5043970;28;20059;-63
2024/01/25 00:14:26;;;;;;;20.80;4.03;;;;;;;11.64;100.00;102647.91;5047747;28;20072;-63
2024/01/25 00:16:54;;;;;;;23.55;3.83;;;;;;;11.99;100.00;102647.13;5044916;28;20053;-61
2024/01/25 00:19:21;;;;;;;24.63;4.95;;;;;;;11.94;100.00;102638.84;5045818;28;20171;-61
2024/01/25 00:21:51;;;;;;;21.83;4.03;;;;;;;11.98;100.00;102637.16;5046504;28;20057;-61
2024/01/25 00:24:20;;;;;;;21.83;3.70;;;;;;;11.98;100.00;102635.22;5046901;28;20067;-61
2024/01/25 00:26:48;;;;;;;17.38;3.97;;;;;;;11.91;100.00;102628.31;5044733;28;20048;-64
2024/01/25 00:29:18;;;;;;;16.88;4.13;;;;;;;11.97;100.00;102621.69;5040883;28;20060;-62
2024/01/25 00:31:46;;;;;;;18.92;4.35;;;;;;;11.84;100.00;102625.00;5037139;28;20057;-61
2024/01/25 00:34:13;;;;;;;22.13;4.88;;;;;;;11.89;100.00;102625.03;5046855;28;20539;-62
2024/01/25 00:36:41;;;;;;;18.00;4.43;;;;;;;11.85;100.00;102627.50;5044850;28;20514;-61
2024/01/25 00:39:09;;;;;;;16.02;3.70;;;;;;;11.82;100.00;102628.03;5046342;28;20589;-61
2024/01/25 00:41:36;;;;;;;17.00;3.60;;;;;;;11.96;100.00;102623.63;5044532;28;20061;-62
2024/01/25 00:44:04;;;;;;;17.27;4.57;;;;;;;11.94;100.00;102633.31;5031165;28;20060;-61
2024/01/25 00:46:31;;;;;;;17.55;4.45;;;;;;;11.74;100.00;102623.06;5030385;28;20049;-63
2024/01/25 00:48:59;;;;;;;21.55;4.93;;;;;;;11.82;100.00;102621.72;5032454;28;20061;-62
2024/01/25 00:51:27;;;;;;;18.38;5.15;;;;;;;11.52;100.00;102627.16;5047176;28;20056;-62
2024/01/25 00:53:54;;;;;;;19.98;4.55;;;;;;;11.51;100.00;102608.91;5059290;28;20083;-62
2024/01/25 00:56:22;;;;;;;18.55;5.07;;;;;;;11.57;100.00;102616.13;5045330;28;20052;-61
2024/01/25 00:58:50;;;;;;;20.90;5.45;;;;;;;11.82;100.00;102611.47;5045110;28;20064;-62
2024/01/25 01:01:19;;;;;;;16.25;4.88;;;;;;;11.92;100.00;102611.50;5045569;28;20053;-59
2024/01/25 01:03:52;;;;;;;18.95;5.07;;;;;;;11.79;100.00;102613.97;5043196;28;20057;-61
2024/01/25 01:06:20;;;;;;;21.77;5.15;;;;;;;11.55;100.00;102613.63;5045554;28;20063;-60
2024/01/25 01:08:48;;;;;;;20.48;7.28;;;;;;;11.65;100.00;102610.91;5042715;28;20057;-63
2024/01/25 01:11:15;;;;;;;25.48;7.28;;;;;;;11.27;100.00;102606.69;5038709;28;20072;-60
2024/01/25 01:13:43;;;;;;;23.92;7.07;;;;;;;11.15;100.00;102613.53;5048998;28;20528;-62
2024/01/25 01:16:10;;;;;;;24.45;7.75;;;;;;;11.49;100.00;102611.16;5049161;28;20057;-62
2024/01/25 01:18:38;;;;;;;26.95;7.20;;;;;;;11.44;100.00;102602.88;5049147;28;20056;-61
2024/01/25 01:21:06;;;;;;;22.38;6.40;;;;;;;11.30;100.00;102608.06;5048611;28;20053;-61
2024/01/25 01:23:33;;;;;;;24.20;6.88;;;;;;;11.32;100.00;102595.66;5048400;28;20049;-61
2024/01/25 01:26:04;;;;;;;19.40;6.22;;;;;;;11.48;100.00;102596.53;5040437;28;20070;-60
2024/01/25 01:28:31;;;;;;;27.15;6.82;;;;;;;11.52;100.00;102588.53;5039603;28;20053;-62
2024/01/25 01:30:58;;;;;;;22.05;8.82;;;;;;;11.74;100.00;102595.47;5050008;28;20064;-61
2024/01/25 01:33:26;;;;;;;12.65;4.57;;;;;;;11.74;100.00;102592.72;5037459;28;20672;-61
2024/01/25 01:35:53;;;;;;;25.02;5.72;;;;;;;11.63;100.00;102599.28;5030185;28;20063;-61
2024/01/25 01:38:21;;;;;;;25.13;5.35;;;;;;;11.60;100.00;102602.59;5029421;28;20087;-60
2024/01/25 01:40:48;;;;;;;22.92;4.80;;;;;;;11.49;100.00;102606.44;5045926;28;20052;-62
2024/01/25 01:43:20;;;;;;;21.70;5.28;;;;;;;11.34;100.00;102609.19;5049183;28;20060;-60
2024/01/25 01:45:48;;;;;;;28.48;6.05;;;;;;;11.38;100.00;102615.00;5049059;28;20044;-62
2024/01/25 01:48:16;;;;;;;24.73;5.57;;;;;;;11.52;100.00;102605.91;5049722;28;20192;-60
2024/01/25 01:50:44;;;;;;;24.55;6.20;;;;;;;11.60;100.00;102601.78;5049620;28;20057;-61
2024/01/25 01:53:12;;;;;;;25.15;6.80;;;;;;;11.35;100.00;102597.03;5049386;28;20053;-61
2024/01/25 01:55:41;;;;;;;22.17;7.03;;;;;;;11.48;100.00;102599.28;5063382;28;20060;-61
2024/01/25 01:58:08;;;;;;;24.65;7.03;;;;;;;11.12;100.00;102605.81;5046144;28;20063;-62
2024/01/25 02:00:37;;;;;;;25.17;6.82;;;;;;;11.12;100.00;102606.63;5047496;28;20072;-59
2024/01/25 02:03:06;;;;;;;24.48;6.55;;;;;;;11.09;100.00;102596.16;5048178;28;20057;-61
2024/01/25 02:05:35;;;;;;;23.90;6.07;;;;;;;11.38;100.00;102593.75;5048841;28;20081;-62
2024/01/25 02:08:03;;;;;;;23.15;5.45;;;;;;;11.23;100.00;102596.47;5048560;28;20075;-62
2024/01/25 02:10:30;;;;;;;21.27;6.57;;;;;;;11.30;100.00;102595.09;5048564;28;20781;-61
2024/01/25 02:12:57;;;;;;;19.45;5.63;;;;;;;11.20;100.00;102602.53;5048796;28;20064;-62
2024/01/25 02:15:24;;;;;;;26.30;5.93;;;;;;;11.19;100.00;102603.63;5066968;28;20597;-61
2024/01/25 02:17:52;;;;;;;21.98;5.25;;;;;;;11.25;100.00;102600.63;5052978;28;20056;-62
2024/01/25 02:20:19;;;;;;;17.35;4.85;;;;;;;11.29;100.00;102600.91;5027701;28;20053;-62
2024/01/25 02:22:47;;;;;;;18.05;5.35;;;;;;;11.20;100.00;102595.09;5041863;28;20068;-62
2024/01/25 02:25:14;;;;;;;19.58;5.40;;;;;;;11.15;100.00;102597.84;5046769;28;20052;-62
2024/01/25 02:27:41;;;;;;;22.98;5.65;;;;;;;11.19;100.00;102598.13;5047790;28;20053;-60
2024/01/25 02:30:09;;;;;;;18.27;5.45;;;;;;;11.27;100.00;102592.91;5047335;28;20132;-61
2024/01/25 02:32:36;;;;;;;17.98;5.65;;;;;;;11.18;100.00;102588.16;5048679;28;20072;-60
2024/01/25 02:35:04;;;;;;;19.48;5.55;;;;;;;11.37;100.00;102585.75;5047911;28;20060;-61
2024/01/25 02:37:31;;;;;;;20.17;5.85;;;;;;;11.66;100.00;102596.03;5062462;28;20049;-61
2024/01/25 02:39:59;;;;;;;17.45;5.45;;;;;;;11.66;100.00;102603.47;5056045;28;20075;-60
2024/01/25 02:42:26;;;;;;;17.15;5.75;;;;;;;11.34;100.00;102607.25;5055093;28;20515;-62
2024/01/25 02:44:54;;;;;;;20.83;5.82;;;;;;;11.18;100.00;102600.03;5041673;28;20045;-62
2024/01/25 02:47:21;;;;;;;18.58;6.07;;;;;;;11.25;100.00;102603.38;5044296;28;20057;-59
2024/01/25 02:49:48;;;;;;;24.08;6.72;;;;;;;11.20;100.00;102602.53;5048037;28;20061;-61
2024/01/25 02:52:17;;;;;;;17.50;6.68;;;;;;;11.20;100.00;102605.28;5061044;28;20518;-61
2024/01/25 02:54:44;;;;;;;29.38;8.13;;;;;;;11.05;100.00;102586.75;5066643;28;20049;-61
2024/01/25 02:57:11;;;;;;;25.27;8.20;;;;;;;11.07;100.00;102595.59;5046014;28;20052;-61
2024/01/25 02:59:39;;;;;;;26.02;9.02;;;;;;;11.17;100.00;102587.38;5047825;28;20060;-61
2024/01/25 03:02:06;;;;;;;25.52;9.00;;;;;;;11.17;100.00;102592.88;5047084;28;20057;-59
2024/01/25 03:04:34;;;;;;;27.85;9.88;;;;;;;11.14;100.00;102587.09;5047011;28;20611;-59
2024/01/25 03:07:02;;;;;;;27.25;10.25;;;;;;;10.95;100.00;102585.88;5047929;28;20053;-61
2024/01/25 03:09:29;;;;;;;29.85;9.60;;;;;;;11.20;100.00;102589.56;5047016;28;20060;-60
2024/01/25 03:11:57;;;;;;;24.38;9.07;;;;;;;11.29;100.00;102596.22;5045972;28;20055;-61
2024/01/25 03:14:24;;;;;;;23.35;8.73;;;;;;;11.27;100.00;102592.06;5049387;28;20049;-61
2024/01/25 03:16:51;;;;;;;20.02;7.15;;;;;;;11.10;100.00;102586.78;5045634;28;20060;-62
2024/01/25 03:19:19;;;;;;;18.67;7.30;;;;;;;11.34;100.00;102585.19;5042683;28;20053;-61
2024/01/25 03:21:46;;;;;;;19.20;6.50;;;;;;;11.43;100.00;102591.00;5027506;28;20539;-61
2024/01/25 03:24:13;;;;;;;19.85;7.72;;;;;;;11.47;100.00;102580.25;5069084;28;20053;-61
2024/01/25 03:26:41;;;;;;;20.30;6.65;;;;;;;11.61;100.00;102578.59;5044915;28;20060;-61
2024/01/25 03:29:08;;;;;;;21.02;8.38;;;;;;;11.43;100.00;102579.13;5047058;28;20049;-59
2024/01/25 03:31:36;;;;;;;17.83;7.28;;;;;;;11.41;100.00;102576.66;5046544;28;20547;-60
2024/01/25 03:34:04;;;;;;;22.20;7.50;;;;;;;11.61;100.00;102579.41;5047274;28;20060;-58
2024/01/25 03:36:36;;;;;;;20.55;7.65;;;;;;;11.63;100.00;102581.91;5046590;28;20049;-60
2024/01/25 03:39:03;;;;;;;19.42;7.45;;;;;;;11.85;100.00;102571.44;5047153;28;20049;-61
2024/01/25 03:41:30;;;;;;;24.15;8.02;;;;;;;12.02;100.00;102574.75;5046308;28;20056;-60
2024/01/25 03:43:58;;;;;;;22.35;9.30;;;;;;;11.95;100.00;102566.75;5047121;28;20060;-61
2024/01/25 03:46:25;;;;;;;23.02;8.95;;;;;;;11.96;100.00;102575.88;5045192;28;20060;-60
2024/01/25 03:48:54;;;;;;;19.38;8.85;;;;;;;12.12;100.00;102583.00;5046004;28;20133;-60
2024/01/25 03:51:23;;;;;;;24.80;9.82;;;;;;;12.22;100.00;102574.72;5047678;28;20053;-60
2024/01/25 03:53:52;;;;;;;18.10;9.00;;;;;;;12.17;100.00;102574.72;5079421;28;20068;-61
2024/01/25 03:56:20;;;;;;;23.65;9.45;;;;;;;12.24;100.00;102567.81;5047090;28;20058;-61
2024/01/25 03:58:47;;;;;;;27.77;8.60;;;;;;;12.18;100.00;102568.94;5047525;28;20060;-61
2024/01/25 04:01:14;;;;;;;23.20;9.88;;;;;;;12.09;100.00;102567.00;5046647;28;20060;-61
2024/01/25 04:03:42;;;;;;;20.25;9.32;;;;;;;12.05;100.00;102572.25;5046250;28;20159;-60
2024/01/25 04:06:09;;;;;;;23.58;8.80;;;;;;;12.16;100.00;102571.16;5045975;28;20056;-61
2024/01/25 04:08:37;;;;;;;30.13;10.63;;;;;;;12.24;100.00;102565.03;5044327;28;20325;-61
2024/01/25 04:11:04;;;;;;;26.33;11.13;;;;;;;12.34;100.00;102566.97;5044488;28;20063;-60
2024/01/25 04:13:32;;;;;;;22.05;9.90;;;;;;;12.33;100.00;102562.53;5049388;28;20831;-60
2024/01/25 04:15:59;;;;;;;22.95;10.98;;;;;;;12.35;100.00;102558.41;5029220;28;20076;-61
2024/01/25 04:18:27;;;;;;;23.35;10.60;;;;;;;12.29;100.00;102565.03;5047708;28;20053;-61
2024/01/25 04:20:54;;;;;;;29.40;12.00;;;;;;;12.30;100.00;102565.88;5046567;28;20060;-60
2024/01/25 04:23:21;;;;;;;23.80;11.93;;;;;;;12.34;100.00;102567.78;5046841;28;20063;-61
2024/01/25 04:25:49;;;;;;;23.95;11.75;;;;;;;12.21;100.00;102570.28;5046524;28;20050;-62
2024/01/25 04:28:16;;;;;;;23.98;11.23;;;;;;;12.15;100.00;102571.44;5045388;28;20045;-61
2024/01/25 04:30:43;;;;;;;21.50;11.35;;;;;;;12.02;100.00;102570.06;5045882;28;20060;-60
2024/01/25 04:33:11;;;;;;;26.00;12.07;;;;;;;11.97;100.00;102566.47;5046366;28;20064;-61
2024/01/25 04:35:38;;;;;;;26.98;12.02;;;;;;;12.15;100.00;102563.94;5046074;28;20057;-60
2024/01/25 04:38:05;;;;;;;20.30;11.75;;;;;;;12.19;100.00;102566.97;5046767;28;20894;-61
2024/01/25 04:40:32;;;;;;;20.80;10.98;;;;;;;12.19;100.00;102567.81;5052349;28;20577;-61
2024/01/25 04:43:00;;;;;;;23.25;11.55;;;;;;;12.29;100.00;102564.22;5045711;28;20053;-61
2024/01/25 04:45:27;;;;;;;27.40;13.52;;;;;;;12.17;100.00;102555.38;5050203;28;20052;-60
2024/01/25 04:47:55;;;;;;;25.40;13.60;;;;;;;12.24;100.00;102559.50;5049397;28;20407;-61
2024/01/25 04:50:22;;;;;;;27.38;15.18;;;;;;;12.25;100.00;102552.91;5050484;28;20072;-60
2024/01/25 04:52:49;;;;;;;32.88;16.88;;;;;;;12.21;100.00;102557.31;5067298;28;20056;-60
2024/01/25 04:55:17;;;;;;;33.15;17.65;;;;;;;12.20;100.00;102565.88;5070502;28;20052;-61
2024/01/25 04:57:44;;;;;;;33.38;17.73;;;;;;;12.12;100.00;102550.69;5069658;28;20052;-61
2024/01/25 05:00:12;;;;;;;38.55;20.13;;;;;;;12.23;100.00;102552.34;5055029;28;20052;-61
2024/01/25 05:02:39;;;;;;;30.25;18.73;;;;;;;12.20;100.00;102549.31;5049641;28;20068;-61
2024/01/25 05:05:07;;;;;;;45.15;19.88;;;;;;;12.44;100.00;102544.81;5050565;28;20057;-61
2024/01/25 05:07:34;;;;;;;37.92;19.20;;;;;;;12.30;100.00;102543.75;5048067;28;20060;-61
2024/01/25 05:10:02;;;;;;;36.60;17.90;;;;;;;12.17;100.00;102530.50;5046760;28;20083;-61
2024/01/25 05:12:29;;;;;;;40.67;18.27;;;;;;;12.09;100.00;102534.69;5028826;28;20056;-61
2024/01/25 05:14:58;;;;;;;35.95;17.38;;;;;;;12.04;100.00;102540.22;5058591;28;20063;-60
2024/01/25 05:17:25;;;;;;;30.88;17.08;;;;;;;11.92;100.00;102542.47;5069496;28;20144;-61
2024/01/25 05:19:52;;;;;;;35.90;17.08;;;;;;;11.79;100.00;102536.66;5070103;28;20052;-61
2024/01/25 05:22:21;;;;;;;29.75;16.50;;;;;;;12.06;100.00;102534.44;5070053;28;20056;-62
2024/01/25 05:24:49;;;;;;;32.33;16.88;;;;;;;12.39;100.00;102534.63;5055014;28;20057;-61
2024/01/25 05:27:16;;;;;;;31.05;16.95;;;;;;;12.23;100.00;102533.00;5063693;28;20064;-61
2024/01/25 05:29:43;;;;;;;28.70;15.65;;;;;;;12.21;100.00;102531.63;5050410;28;20060;-62
2024/01/25 05:32:11;;;;;;;30.42;16.42;;;;;;;12.05;100.00;102521.69;5047778;28;20076;-61
2024/01/25 05:34:39;;;;;;;27.80;15.27;;;;;;;11.99;100.00;102515.38;5048008;28;20295;-60
2024/01/25 05:37:06;;;;;;;28.65;15.68;;;;;;;11.98;100.00;102521.16;5049073;28;20067;-61
2024/01/25 05:39:34;;;;;;;25.23;15.07;;;;;;;11.92;100.00;102517.59;5054587;28;20733;-61
2024/01/25 05:42:01;;;;;;;28.20;15.48;;;;;;;11.99;100.00;102518.16;5059790;28;20056;-63
2024/01/25 05:44:28;;;;;;;22.02;12.75;;;;;;;12.04;100.00;102514.53;5049992;28;20057;-60
2024/01/25 05:46:55;;;;;;;22.35;13.02;;;;;;;11.77;100.00;102514.03;5045451;28;20053;-59
2024/01/25 05:49:23;;;;;;;21.33;12.02;;;;;;;11.73;100.00;102513.78;5029017;28;20060;-59
2024/01/25 05:51:50;;;;;;;21.40;12.07;;;;;;;11.73;100.00;102527.56;5047122;28;20056;-60
2024/01/25 05:54:18;;;;;;;23.20;12.27;;;;;;;11.90;100.00;102525.34;5068553;28;20056;-58
2024/01/25 05:56:45;;;;;;;21.90;11.93;;;;;;;11.83;100.00;102529.47;5013291;28;20053;-59
2024/01/25 05:59:12;;;;;;;22.92;13.60;;;;;;;11.94;100.00;102531.94;5010848;28;20045;-57
2024/01/25 06:01:39;;;;;;;27.23;14.65;;;;;;;11.95;100.00;102530.84;5028728;28;20045;-59
2024/01/25 06:04:07;;;;;;;24.83;14.70;;;;;;;12.07;100.00;102528.63;5028118;28;20732;-58
2024/01/25 06:06:35;;;;;;;28.33;14.23;;;;;;;12.10;100.00;102527.25;5029042;28;20056;-61
2024/01/25 06:09:05;;;;;;;25.73;14.85;;;;;;;12.06;100.00;102535.25;5025177;28;20983;-58
2024/01/25 06:11:40;;;;;;;26.80;15.88;;;;;;;12.11;100.00;102528.88;5034679;28;20053;-58
2024/01/25 06:14:09;;;;;;;28.55;15.20;;;;;;;12.28;100.00;102541.28;5049076;28;20280;-59
2024/01/25 06:16:42;;;;;;;28.90;15.32;;;;;;;12.25;100.00;102541.00;5045356;28;20054;-59
2024/01/25 06:19:17;;;;;;;26.92;15.27;;;;;;;12.18;100.00;102537.72;5029992;28;20064;-56
2024/01/25 06:21:45;;;;;;;29.23;16.17;;;;;;;12.25;100.00;102543.78;5045205;28;20168;-59
2024/01/25 06:24:13;;;;;;;26.55;15.45;;;;;;;12.28;100.00;102543.19;5038078;28;20048;-58
2024/01/25 06:26:40;;;;;;;28.60;15.52;;;;;;;12.19;100.00;102533.81;5045231;28;20045;-60
2024/01/25 06:29:11;;;;;;;28.33;14.82;;;;;;;12.06;100.00;102535.25;5047126;28;20045;-59
2024/01/25 06:31:45;;;;;;;23.83;14.63;;;;;;;12.32;100.00;102530.50;5047288;28;20072;-57
2024/01/25 06:34:12;;;;;;;24.17;14.07;;;;;;;12.38;100.00;102538.47;5019630;28;20061;-59
2024/01/25 06:36:40;;;;;;;24.48;14.70;;;;;;;12.35;100.00;102532.69;5027982;28;20065;-58
2024/01/25 06:39:08;;;;;;;24.05;14.52;;;;;;;12.44;100.00;102529.06;5031983;28;20049;-60
2024/01/25 06:41:35;;;;;;;26.50;14.30;;;;;;;12.48;100.00;102530.16;5046407;28;20067;-57
2024/01/25 06:44:03;;;;;;;29.45;15.32;;;;;;;12.49;100.00;102530.97;5035107;28;20060;-58
2024/01/25 06:46:30;;;;;;;26.75;14.20;;;;;;;12.55;100.00;102532.63;5032184;28;20066;-58
2024/01/25 06:48:58;;;;;;;25.65;15.43;;;;;;;12.55;100.00;102523.50;5047065;28;20487;-58
2024/01/25 06:51:25;;;;;;;28.55;16.13;;;;;;;12.40;100.00;102530.75;5047535;28;20056;-59
2024/01/25 06:53:53;;;;;;;25.33;15.05;;;;;;;12.42;100.00;102524.94;5047885;28;20053;-58
2024/01/25 06:56:20;;;;;;;30.35;18.70;;;;;;;12.48;100.00;102514.69;5037281;28;20063;-60
2024/01/25 06:58:48;;;;;;;27.45;16.05;;;;;;;12.38;100.00;102515.53;5052449;28;20045;-57
2024/01/25 07:01:22;;;;;;;32.00;16.75;;;;;;;12.56;100.00;102511.31;5047461;28;20056;-60
2024/01/25 07:03:53;;;;;;;24.60;14.70;;;;;;;12.52;100.00;102508.28;5033386;28;20068;-61
2024/01/25 07:06:21;;;;;;;28.40;16.00;;;;;;;12.46;100.00;102506.69;5027848;28;20077;-59
2024/01/25 07:08:49;;;;;;;31.88;17.00;;;;;;;12.58;100.00;102503.56;5047367;28;20048;-58
2024/01/25 07:11:17;;;;;;;28.52;15.63;;;;;;;12.51;100.00;102505.81;5062796;28;20045;-60
2024/01/25 07:13:44;;;;;;;27.23;15.02;;;;;;;12.38;100.00;102519.13;5031772;28;20166;-59
2024/01/25 07:16:12;;;;;;;31.33;15.65;;;;;;;12.42;100.00;102511.09;5037386;28;20053;-61
2024/01/25 07:18:39;;;;;;;29.63;16.48;;;;;;;12.37;100.00;102513.91;5043864;28;20048;-61
2024/01/25 07:21:08;;;;;;;30.65;17.58;;;;;;;12.38;100.00;102510.00;5038537;28;20052;-61
2024/01/25 07:23:35;;;;;;;35.75;19.38;;;;;;;12.46;100.00;102512.19;5047413;28;20052;-59
2024/01/25 07:26:03;;;;;;;33.13;18.20;;;;;;;12.38;100.00;102512.78;5045550;28;20091;-60
2024/01/25 07:28:31;;;;;;;30.52;17.27;;;;;;;12.15;100.00;102513.41;5045118;28;20053;-60
2024/01/25 07:30:58;;;;;;;33.10;17.65;;;;;;;12.17;100.00;102514.78;5044254;28;20047;-61
2024/01/25 07:33:25;;;;;;;31.40;16.77;;;;;;;12.25;100.00;102518.91;5044855;28;20053;-60
2024/01/25 07:35:53;;;;;;;32.42;16.52;;;;;;;12.40;100.00;102513.31;5028384;28;20068;-59
2024/01/25 07:38:20;;;;;;;33.83;16.75;;;;;;;12.50;100.00;102513.28;5044355;28;20049;-59
2024/01/25 07:40:48;;;;;;;28.13;15.82;;;;;;;12.62;100.00;102508.28;5040099;28;20056;-59
2024/01/25 07:43:15;;;;;;;37.50;17.63;;;;;;;12.69;100.00;102511.56;5031345;28;20055;-58
2024/01/25 07:45:43;;;;;;;34.15;17.20;;;;;;;12.75;100.00;102513.16;5053244;28;20086;-61
2024/01/25 07:48:11;;;;;;;32.58;16.63;;;;;;;12.59;100.00;102508.00;5036697;28;20056;-61
2024/01/25 07:50:42;;;;;;;40.00;21.55;;;;;;;12.60;100.00;102499.44;5035469;28;20087;-61
2024/01/25 07:53:12;;;;;;;34.17;18.20;;;;;;;12.78;100.00;102500.72;5035645;28;20091;-59
2024/01/25 07:55:39;;;;;;;30.63;16.52;;;;;;;12.86;100.00;102498.19;5037084;28;20041;-58
2024/01/25 07:58:53;;;;;;;32.20;17.30;;;;;;;13.10;100.00;102501.94;5033589;28;20506;-59
2024/01/25 08:01:21;;;;;;;34.50;15.85;;;;;;;13.10;100.00;102503.88;5009912;28;20057;-60
2024/01/25 08:03:48;;;;;;;34.58;16.10;;;;;;;13.17;100.00;102507.13;5029989;28;20053;-60
2024/01/25 08:06:16;;;;;;;32.05;16.75;;;;;;;12.98;100.00;102508.88;5034411;28;20055;-59
2024/01/25 08:08:43;;;;;;;30.48;15.88;;;;;;;12.91;100.00;102511.97;5034667;28;20051;-64
2024/01/25 08:11:11;;;;;;;32.80;16.42;;;;;;;12.73;100.00;102507.09;5045220;28;20048;-61
2024/01/25 08:13:38;;;;;;;33.47;16.35;;;;;;;12.89;100.00;102507.84;5043021;28;20057;-61
2024/01/25 08:16:10;;;;;;;32.75;16.85;;;;;;;12.88;100.00;102507.03;5039169;28;20677;-59
2024/01/25 08:18:38;;;;;;;39.58;17.60;;;;;;;12.97;100.00;102508.06;5075178;28;20048;-58
2024/01/25 08:21:06;;;;;;;30.88;16.42;;;;;;;12.98;100.00;102508.88;5037590;28;20056;-59
2024/01/25 08:23:33;;;;;;;33.83;16.40;;;;;;;12.98;100.00;102506.97;5037132;28;20057;-56
2024/01/25 08:26:00;;;;;;;35.63;16.27;;;;;;;13.23;100.00;102500.47;5040403;28;20057;-57
2024/01/25 08:28:28;;;;;;;35.75;15.98;;;;;;;13.27;100.00;102495.97;5034555;28;20056;-59
2024/01/25 08:30:55;;;;;;;33.97;15.95;;;;;;;13.18;100.00;102504.06;5038588;28;20053;-57
2024/01/25 08:33:24;;;;;;;35.10;15.95;;;;;;;13.28;100.00;102497.66;5032980;28;20061;-57
2024/01/25 08:35:52;;;;;;;32.90;14.48;;;;;;;13.25;100.00;102504.59;5030620;28;20668;-57
2024/01/25 08:38:20;;;;;;;28.02;14.80;;;;;;;13.15;100.00;102501.91;5028729;28;20045;-61
2024/01/25 08:40:47;;;;;;;36.25;14.27;;;;;;;13.30;100.00;102506.50;5044315;28;20064;-59
2024/01/25 08:43:15;;;;;;;26.17;14.23;;;;;;;13.30;100.00;102510.06;5044014;28;20061;-59
2024/01/25 08:45:42;;;;;;;27.65;13.30;;;;;;;13.29;100.00;102505.66;5034296;28;20053;-56
2024/01/25 08:48:09;;;;;;;66.63;42.92;;;;;;;13.39;100.00;102515.81;5040385;28;20056;-60
2024/01/25 08:50:37;;;;;;;34.03;15.10;;;;;;;13.41;100.00;102519.13;5033333;28;20057;-57
2024/01/25 08:53:05;;;;;;;24.10;12.52;;;;;;;13.45;100.00;102512.75;5043522;28;20045;-58
2024/01/25 08:55:32;;;;;;;25.50;12.10;;;;;;;13.77;100.00;102514.13;5035909;28;20116;-56
2024/01/25 08:58:00;;;;;;;27.08;10.80;;;;;;;13.61;100.00;102524.53;5052793;28;20057;-60
2024/01/25 09:00:27;;;;;;;27.58;10.95;;;;;;;13.46;100.00;102528.22;5037936;28;20041;-61
2024/01/25 09:02:55;;;;;;;24.73;10.40;;;;;;;13.62;100.00;102528.09;5034960;28;20054;-59
2024/01/25 09:05:22;;;;;;;23.63;10.15;;;;;;;13.58;100.00;102523.13;5034326;28;20087;-60
2024/01/25 09:07:50;;;;;;;22.92;9.82;;;;;;;13.50;100.00;102526.53;5031077;28;20061;-60
2024/01/25 09:10:18;;;;;;;21.95;8.82;;;;;;;13.59;100.00;102521.22;5035065;28;20064;-61
2024/01/25 09:12:45;;;;;;;21.52;8.90;;;;;;;13.75;100.00;102524.66;5074068;28;20068;-62
2024/01/25 09:15:13;;;;;;;22.13;8.20;;;;;;;13.72;100.00;102522.50;5047240;28;20061;-59
2024/01/25 09:17:40;;;;;;;21.85;6.95;;;;;;;13.79;100.00;102520.22;5030085;28;20053;-61
2024/01/25 09:20:08;;;;;;;20.23;7.28;;;;;;;13.82;100.00;102520.44;5040686;28;20499;-60
2024/01/25 09:22:37;;;;;;;20.65;7.82;;;;;;;13.84;100.00;102518.22;5031322;28;20049;-60
2024/01/25 09:25:05;;;;;;;24.02;7.15;;;;;;;13.78;100.00;102518.53;5030009;28;20056;-61
2024/01/25 09:27:38;;;;;;;19.58;6.40;;;;;;;13.92;100.00;102517.56;5036283;28;20076;-63
2024/01/25 09:30:06;;;;;;;20.65;6.82;;;;;;;13.76;100.00;102516.06;5040266;28;20049;-60
2024/01/25 09:32:34;;;;;;;25.75;6.97;;;;;;;13.92;100.00;102508.44;5049814;28;20064;-60
2024/01/25 09:35:01;;;;;;;25.05;7.35;;;;;;;13.90;100.00;102516.19;5047189;28;20057;-65
2024/01/25 09:37:29;;;;;;;21.65;7.00;;;;;;;14.07;100.00;102514.63;5042086;28;20049;-61
2024/01/25 09:40:00;;;;;;;26.88;6.75;;;;;;;13.99;100.00;102515.28;5050665;28;20057;-60
2024/01/25 09:42:28;;;;;;;17.77;6.60;;;;;;;13.98;100.00;102512.81;5042048;28;20061;-62
2024/01/25 09:44:55;;;;;;;21.08;7.32;;;;;;;14.15;100.00;102511.25;5046206;28;20049;-61
2024/01/25 09:47:23;;;;;;;26.02;7.00;;;;;;;14.24;100.00;102517.78;5046861;28;20057;-62
2024/01/25 09:49:51;;;;;;;20.98;5.80;;;;;;;14.20;99.76;102518.66;5029712;28;20104;-61
2024/01/25 09:52:19;;;;;;;19.63;6.07;;;;;;;14.17;99.53;102522.88;5030624;28;20053;-62
2024/01/25 09:54:47;;;;;;;19.05;6.38;;;;;;;14.06;100.00;102515.78;5047988;28;20060;-61
2024/01/25 09:57:18;;;;;;;26.65;7.80;;;;;;;13.98;100.00;102512.81;5047776;28;20056;-60
2024/01/25 09:59:45;;;;;;;33.08;8.60;;;;;;;14.13;99.75;102515.41;5035017;28;20428;-61
2024/01/25 10:02:13;;;;;;;19.33;7.82;;;;;;;14.14;100.00;102517.09;5058689;28;20057;-61
2024/01/25 10:04:41;;;;;;;24.55;7.90;;;;;;;14.03;99.76;102515.53;5048892;28;20068;-60
2024/01/25 10:07:08;;;;;;;19.67;8.50;;;;;;;14.00;100.00;102527.22;5039522;28;20053;-60
2024/01/25 10:09:45;;;;;;;25.42;8.15;;;;;;;14.04;100.00;102531.03;5036850;28;20086;-59
2024/01/25 10:12:13;;;;;;;17.30;7.13;;;;;;;14.21;100.00;102535.00;5036322;28;20060;-61
2024/01/25 10:14:45;;;;;;;20.23;7.28;;;;;;;14.12;100.00;102528.44;5036901;28;20053;-59
2024/01/25 10:17:13;;;;;;;23.67;6.60;;;;;;;14.10;100.00;102533.47;5045150;28;20060;-62
2024/01/25 10:19:44;;;;;;;20.30;7.03;;;;;;;14.24;100.00;102530.81;5029024;28;20060;-61
2024/01/25 10:22:13;;;;;;;19.75;6.60;;;;;;;14.12;100.00;102536.75;5039038;28;20048;-62
2024/01/25 10:24:42;;;;;;;17.92;6.45;;;;;;;14.51;99.72;102531.09;5046923;28;20053;-60
2024/01/25 10:27:12;;;;;;;17.95;6.40;;;;;;;14.36;98.29;102532.13;5034783;28;20049;-63
2024/01/25 10:29:39;;;;;;;23.77;6.35;;;;;;;14.28;99.08;102531.91;5048615;28;20056;-60
2024/01/25 10:32:09;;;;;;;20.95;7.18;;;;;;;14.40;99.00;102529.56;5041978;28;20483;-60
2024/01/25 10:34:37;;;;;;;20.80;6.40;;;;;;;14.52;98.92;102535.53;5041903;28;20049;-61
2024/01/25 10:37:06;;;;;;;18.38;6.65;;;;;;;14.56;98.21;102536.56;5069192;28;20054;-60
2024/01/25 10:39:34;;;;;;;17.77;6.15;;;;;;;14.55;97.88;102538.53;5034393;28;20049;-61
2024/01/25 10:42:02;;;;;;;16.27;5.97;;;;;;;14.58;98.07;102529.63;5047660;28;20048;-58
2024/01/25 10:44:30;;;;;;;18.83;6.53;;;;;;;14.51;97.24;102528.31;5041482;28;20041;-59
2024/01/25 10:46:59;;;;;;;18.10;6.28;;;;;;;14.55;97.40;102516.34;5043792;28;20064;-60
2024/01/25 10:49:27;;;;;;;18.83;5.60;;;;;;;14.60;96.61;102521.00;5048153;28;20061;-58
2024/01/25 10:51:58;;;;;;;19.38;5.97;;;;;;;14.72;96.42;102521.38;5039381;28;20471;-59
2024/01/25 10:54:26;;;;;;;16.75;5.95;;;;;;;14.84;96.57;102516.22;5041938;28;20071;-58
2024/01/25 10:56:53;;;;;;;17.08;5.97;;;;;;;14.63;96.45;102517.63;5043275;28;20404;-61
2024/01/25 10:59:21;;;;;;;15.55;5.32;;;;;;;14.53;97.42;102513.03;5045049;28;20838;-59
2024/01/25 11:01:48;;;;;;;15.80;5.45;;;;;;;14.60;97.56;102521.00;5047761;28;20041;-61
2024/01/25 11:04:17;;;;;;;15.50;5.45;;;;;;;14.39;98.17;102512.09;5035695;28;20056;-58
2024/01/25 11:06:45;;;;;;;19.45;5.97;;;;;;;14.80;97.67;102506.03;5045109;28;20053;-62
2024/01/25 11:09:20;;;;;;;14.77;5.63;;;;;;;14.84;96.60;102504.28;5044997;28;20049;-60
2024/01/25 11:11:49;;;;;;;19.67;6.20;;;;;;;14.78;96.87;102495.25;5039573;28;20123;-61